createdAt,value
2019-05-20T00:01:52.851Z,19.20
2019-05-20T00:04:30.546Z,19.20
2019-05-20T00:07:07.383Z,19.20
2019-05-20T00:09:44.703Z,19.20
2019-05-20T00:12:21.316Z,19.10
2019-05-20T00:14:59.061Z,19.20
2019-05-20T00:17:35.761Z,19.20
2019-05-20T00:20:13.938Z,19.10
2019-05-20T00:22:50.777Z,19.20
2019-05-20T00:25:27.823Z,19.10
2019-05-20T00:28:04.835Z,19.10
2019-05-20T00:30:41.588Z,19.20
2019-05-20T00:33:16.881Z,19.10
2019-05-20T00:35:54.760Z,19.10
2019-05-20T00:38:31.864Z,19.10
2019-05-20T00:41:09.194Z,19.20
2019-05-20T00:43:46.994Z,19.10
2019-05-20T00:46:25.472Z,19.10
2019-05-20T00:49:03.599Z,19.10
2019-05-20T00:51:41.748Z,19.10
2019-05-20T00:54:18.861Z,19.10
2019-05-20T00:56:55.696Z,19.10
2019-05-20T00:59:32.943Z,19.10
2019-05-20T01:02:10.538Z,19.10
2019-05-20T01:04:48.451Z,19.10
2019-05-20T01:07:23.776Z,19.10
2019-05-20T01:10:01.602Z,19.10
2019-05-20T01:12:39.786Z,19.10
2019-05-20T01:15:18.563Z,19.10
2019-05-20T01:17:55.243Z,19.10
2019-05-20T01:20:32.909Z,19.10
2019-05-20T01:23:09.715Z,19.10
2019-05-20T01:25:47.737Z,19.20
2019-05-20T01:28:24.216Z,19.10
2019-05-20T01:31:04.401Z,19.10
2019-05-20T01:33:42.312Z,19.10
2019-05-20T01:36:18.566Z,19.10
2019-05-20T01:38:55.600Z,19.10
2019-05-20T01:41:33.076Z,19.10
2019-05-20T01:44:09.282Z,19.10
2019-05-20T01:46:46.168Z,19.10
2019-05-20T01:49:23.355Z,19.10
2019-05-20T01:52:00.975Z,19.10
2019-05-20T01:54:37.524Z,19.10
2019-05-20T01:57:15.369Z,19.10
2019-05-20T01:59:52.046Z,19.10
2019-05-20T02:02:29.325Z,19.10
2019-05-20T02:05:06.461Z,19.10
2019-05-20T02:07:43.476Z,19.10
2019-05-20T02:10:20.227Z,19.00
2019-05-20T02:12:57.681Z,19.00
2019-05-20T02:15:42.029Z,19.00
2019-05-20T02:18:18.866Z,19.00
2019-05-20T02:20:56.758Z,19.00
2019-05-20T02:23:34.385Z,19.00
2019-05-20T02:26:11.969Z,19.00
2019-05-20T02:28:49.730Z,19.00
2019-05-20T02:31:26.956Z,19.00
2019-05-20T02:34:04.898Z,19.00
2019-05-20T02:36:42.342Z,19.00
2019-05-20T02:39:19.778Z,19.00
2019-05-20T02:41:56.955Z,19.00
2019-05-20T02:44:33.275Z,19.00
2019-05-20T02:47:10.580Z,19.00
2019-05-20T02:49:47.761Z,19.00
2019-05-20T02:52:25.136Z,19.00
2019-05-20T02:55:02.090Z,19.00
2019-05-20T02:57:39.913Z,19.00
2019-05-20T03:00:17.988Z,19.00
2019-05-20T03:02:53.464Z,18.90
2019-05-20T03:05:33.360Z,18.90
2019-05-20T03:08:10.022Z,18.90
2019-05-20T03:10:47.205Z,18.80
2019-05-20T03:13:25.149Z,18.90
2019-05-20T03:16:02.653Z,18.90
2019-05-20T03:18:40.386Z,18.90
2019-05-20T03:21:17.406Z,18.90
2019-05-20T03:23:54.580Z,18.90
2019-05-20T03:26:31.091Z,18.90
2019-05-20T03:29:07.444Z,18.90
2019-05-20T03:31:44.977Z,18.90
2019-05-20T03:34:43.923Z,19.00
2019-05-20T03:36:59.784Z,18.90
2019-05-20T03:39:37.815Z,19.00
2019-05-20T03:42:15.700Z,18.90
2019-05-20T03:44:53.637Z,18.90
2019-05-20T03:47:30.584Z,18.90
2019-05-20T03:50:08.671Z,18.90
2019-05-20T03:52:47.156Z,19.00
2019-05-20T03:55:25.497Z,19.00
2019-05-20T03:58:03.730Z,19.00
2019-05-20T04:00:49.258Z,19.00
2019-05-20T04:03:26.125Z,18.90
2019-05-20T04:06:02.711Z,18.90
2019-05-20T04:08:40.057Z,18.90
2019-05-20T04:11:17.011Z,19.00
2019-05-20T04:13:55.035Z,18.90
2019-05-20T04:16:32.611Z,18.90
2019-05-20T04:19:09.530Z,18.90
2019-05-20T04:21:46.889Z,18.90
2019-05-20T04:24:24.923Z,19.00
2019-05-20T04:27:03.100Z,19.00
2019-05-20T04:29:40.508Z,18.90
2019-05-20T04:32:17.150Z,18.90
2019-05-20T04:34:53.900Z,18.90
2019-05-20T04:37:29.735Z,18.90
2019-05-20T04:40:06.564Z,18.90
2019-05-20T04:42:45.244Z,19.00
2019-05-20T04:45:22.846Z,19.10
2019-05-20T04:48:00.431Z,19.10
2019-05-20T04:50:38.452Z,19.20
2019-05-20T04:53:15.491Z,19.20
2019-05-20T04:55:53.216Z,19.20
2019-05-20T04:58:30.167Z,19.20
2019-05-20T05:01:07.989Z,19.10
2019-05-20T05:03:44.652Z,19.00
2019-05-20T05:06:22.704Z,19.00
2019-05-20T05:08:57.795Z,19.10
2019-05-20T05:11:35.818Z,19.20
2019-05-20T05:14:14.342Z,19.10
2019-05-20T05:17:04.194Z,19.10
2019-05-20T05:19:42.356Z,19.10
2019-05-20T05:22:19.462Z,19.20
2019-05-20T05:24:57.184Z,19.10
2019-05-20T05:27:34.361Z,19.10
2019-05-20T05:30:12.177Z,19.10
2019-05-20T05:32:48.991Z,19.10
2019-05-20T05:35:25.736Z,19.10
2019-05-20T05:38:01.836Z,19.10
2019-05-20T05:40:39.760Z,19.10
2019-05-20T05:43:17.059Z,19.00
2019-05-20T05:45:54.317Z,19.10
2019-05-20T05:48:30.935Z,19.20
2019-05-20T05:51:07.593Z,19.20
2019-05-20T05:53:43.484Z,19.30
2019-05-20T05:56:20.414Z,19.20
2019-05-20T05:58:55.491Z,19.20
2019-05-20T06:01:26.025Z,19.10
2019-05-20T06:03:56.476Z,19.20
2019-05-20T06:06:26.680Z,19.10
2019-05-20T06:08:57.290Z,19.20
2019-05-20T06:11:27.294Z,19.20
2019-05-20T06:13:57.624Z,19.20
2019-05-20T06:16:36.465Z,19.20
2019-05-20T06:19:00.254Z,19.20
2019-05-20T06:21:30.862Z,19.20
2019-05-20T06:24:01.242Z,19.10
2019-05-20T06:26:31.690Z,19.10
2019-05-20T06:29:03.082Z,19.10
2019-05-20T06:31:33.542Z,19.10
2019-05-20T06:34:04.136Z,19.10
2019-05-20T06:36:35.895Z,19.10
2019-05-20T06:39:11.566Z,19.20
2019-05-20T06:41:42.417Z,19.20
2019-05-20T06:44:13.737Z,19.10
2019-05-20T06:46:44.410Z,19.10
2019-05-20T06:49:16.171Z,19.10
2019-05-20T06:51:46.636Z,19.20
2019-05-20T06:54:17.952Z,19.20
2019-05-20T06:56:48.702Z,19.20
2019-05-20T06:59:19.238Z,19.10
2019-05-20T07:01:49.560Z,19.20
2019-05-20T07:04:20.195Z,19.20
2019-05-20T07:06:50.576Z,19.20
2019-05-20T07:09:20.932Z,19.20
2019-05-20T07:11:53.071Z,19.10
2019-05-20T07:14:23.088Z,19.10
2019-05-20T07:16:53.422Z,19.20
2019-05-20T07:19:25.057Z,19.10
2019-05-20T07:21:55.385Z,19.10
2019-05-20T07:24:25.900Z,19.10
2019-05-20T07:26:56.260Z,19.10
2019-05-20T07:29:26.940Z,19.10
2019-05-20T07:31:58.424Z,19.10
2019-05-20T07:34:28.812Z,19.10
2019-05-20T07:37:12.987Z,19.10
2019-05-20T07:39:43.709Z,19.10
2019-05-20T07:42:13.850Z,19.10
2019-05-20T07:44:44.160Z,19.10
2019-05-20T07:47:14.786Z,19.10
2019-05-20T07:49:45.472Z,19.10
2019-05-20T07:52:16.047Z,19.10
2019-05-20T07:54:47.176Z,19.10
2019-05-20T07:57:18.912Z,19.10
2019-05-20T07:59:51.883Z,19.20
2019-05-20T08:02:22.060Z,19.20
2019-05-20T08:04:52.387Z,19.20
2019-05-20T08:07:29.724Z,19.20
2019-05-20T08:09:54.766Z,19.20
2019-05-20T08:12:25.120Z,19.20
2019-05-20T08:14:55.457Z,19.20
2019-05-20T08:17:26.345Z,19.20
2019-05-20T08:19:56.496Z,19.20
2019-05-20T08:22:26.961Z,19.20
2019-05-20T08:24:57.536Z,19.20
2019-05-20T08:27:28.019Z,19.10
2019-05-20T08:29:58.303Z,19.20
2019-05-20T08:32:28.629Z,19.20
2019-05-20T08:34:58.834Z,19.20
2019-05-20T08:37:44.351Z,19.30
2019-05-20T08:40:01.649Z,19.20
2019-05-20T08:42:33.659Z,19.20
2019-05-20T08:45:05.230Z,19.20
2019-05-20T08:47:35.478Z,19.20
2019-05-20T08:50:13.009Z,19.20
2019-05-20T08:52:39.383Z,19.30
2019-05-20T08:55:10.181Z,19.30
2019-05-20T08:57:40.503Z,19.30
2019-05-20T09:00:18.508Z,19.30
2019-05-20T09:02:48.282Z,19.30
2019-05-20T09:05:18.412Z,19.30
2019-05-20T09:08:02.268Z,19.30
2019-05-20T09:10:20.685Z,19.40
2019-05-20T09:12:51.020Z,19.30
2019-05-20T09:15:21.304Z,19.30
2019-05-20T09:17:51.871Z,19.30
2019-05-20T09:20:22.690Z,19.40
2019-05-20T09:23:06.557Z,19.40
2019-05-20T09:25:37.344Z,19.30
2019-05-20T09:28:07.938Z,19.30
2019-05-20T09:30:39.833Z,19.30
2019-05-20T09:33:10.396Z,19.30
2019-05-20T09:35:40.780Z,19.30
2019-05-20T09:38:20.120Z,19.30
2019-05-20T09:40:49.290Z,19.30
2019-05-20T09:43:19.523Z,19.30
2019-05-20T09:46:05.757Z,19.40
2019-05-20T09:48:25.235Z,19.30
2019-05-20T09:50:54.829Z,19.30
2019-05-20T09:53:25.083Z,19.30
2019-05-20T09:55:55.272Z,19.30
2019-05-20T09:58:25.592Z,19.30
2019-05-20T10:00:55.939Z,19.30
2019-05-20T10:03:26.339Z,19.30
2019-05-20T10:05:56.545Z,19.30
2019-05-20T10:08:37.586Z,19.30
2019-05-20T10:10:59.856Z,19.40
2019-05-20T10:13:30.901Z,19.30
2019-05-20T10:16:01.245Z,19.30
2019-05-20T10:18:37.318Z,19.30
2019-05-20T10:21:03.349Z,19.30
2019-05-20T10:23:33.807Z,19.40
2019-05-20T10:26:04.203Z,19.30
2019-05-20T10:28:34.650Z,19.30
2019-05-20T10:31:05.281Z,19.30
2019-05-20T10:33:37.152Z,19.30
2019-05-20T10:36:07.240Z,19.30
2019-05-20T10:38:54.891Z,19.30
2019-05-20T10:41:09.913Z,19.30
2019-05-20T10:43:40.248Z,19.30
2019-05-20T10:46:10.531Z,19.30
2019-05-20T10:48:40.706Z,19.40
2019-05-20T10:51:12.468Z,19.30
2019-05-20T10:53:43.059Z,19.40
2019-05-20T10:56:13.743Z,19.40
2019-05-20T10:58:44.571Z,19.40
2019-05-20T11:01:34.965Z,19.40
2019-05-20T11:04:05.630Z,19.40
2019-05-20T11:06:35.959Z,19.40
2019-05-20T11:09:14.073Z,19.40
2019-05-20T11:11:39.581Z,19.40
2019-05-20T11:14:09.661Z,19.40
2019-05-20T11:16:39.924Z,19.40
2019-05-20T11:19:10.338Z,19.40
2019-05-20T11:21:40.458Z,19.40
2019-05-20T11:24:11.174Z,19.40
2019-05-20T11:26:41.525Z,19.40
2019-05-20T11:29:13.076Z,19.50
2019-05-20T11:31:43.475Z,19.40
2019-05-20T11:34:13.689Z,19.40
2019-05-20T11:36:44.228Z,19.40
2019-05-20T11:39:31.311Z,19.40
2019-05-20T11:41:53.267Z,19.40
2019-05-20T11:44:18.668Z,19.40
2019-05-20T11:46:48.903Z,19.40
2019-05-20T11:49:19.171Z,19.40
2019-05-20T11:51:49.533Z,19.40
2019-05-20T11:54:19.868Z,19.40
2019-05-20T11:56:50.763Z,19.40
2019-05-20T11:59:21.175Z,19.40
2019-05-20T12:01:51.567Z,19.50
2019-05-20T12:04:21.999Z,19.50
2019-05-20T12:06:52.432Z,19.50
2019-05-20T12:09:22.758Z,19.50
2019-05-20T12:11:53.266Z,19.50
2019-05-20T12:14:23.818Z,19.50
2019-05-20T12:16:54.185Z,19.50
2019-05-20T12:19:24.559Z,19.50
2019-05-20T12:21:55.285Z,19.50
2019-05-20T12:24:27.068Z,19.50
2019-05-20T12:26:57.289Z,19.50
2019-05-20T12:29:27.583Z,19.50
2019-05-20T12:32:11.619Z,19.50
2019-05-20T12:34:42.169Z,19.50
2019-05-20T12:37:18.740Z,19.50
2019-05-20T12:40:05.556Z,19.50
2019-05-20T12:42:21.298Z,19.40
2019-05-20T12:44:51.283Z,19.50
2019-05-20T12:47:21.502Z,19.50
2019-05-20T12:49:52.008Z,19.50
2019-05-20T12:52:22.432Z,19.50
2019-05-20T12:55:07.089Z,19.50
2019-05-20T12:57:24.606Z,19.50
2019-05-20T12:59:54.927Z,19.50
2019-05-20T13:02:25.429Z,19.50
2019-05-20T13:05:10.781Z,19.50
2019-05-20T13:07:42.088Z,19.50
2019-05-20T13:10:27.638Z,19.50
2019-05-20T13:12:44.890Z,19.50
2019-05-20T13:15:17.143Z,19.50
2019-05-20T13:17:48.689Z,19.50
2019-05-20T13:20:18.843Z,19.60
2019-05-20T13:22:49.206Z,19.50
2019-05-20T13:25:19.703Z,19.50
2019-05-20T13:27:49.808Z,19.50
2019-05-20T13:30:20.442Z,19.50
2019-05-20T13:32:51.162Z,19.50
2019-05-20T13:35:21.513Z,19.50
2019-05-20T13:37:51.874Z,19.50
2019-05-20T13:40:22.418Z,19.50
2019-05-20T13:42:53.141Z,19.60
2019-05-20T13:45:23.576Z,19.50
2019-05-20T13:47:54.213Z,19.50
2019-05-20T13:50:24.476Z,19.50
2019-05-20T13:52:56.138Z,19.60
2019-05-20T13:55:26.676Z,19.50
2019-05-20T13:57:56.947Z,19.50
2019-05-20T14:00:27.689Z,19.50
2019-05-20T14:02:57.986Z,19.50
2019-05-20T14:05:28.328Z,19.50
2019-05-20T14:07:58.663Z,19.50
2019-05-20T14:10:29.024Z,19.50
2019-05-20T14:13:00.060Z,19.50
2019-05-20T14:15:31.560Z,19.50
2019-05-20T14:18:01.961Z,19.50
2019-05-20T14:20:32.666Z,19.50
2019-05-20T14:23:03.020Z,19.50
2019-05-20T14:25:33.406Z,19.50
2019-05-20T14:28:04.266Z,19.50
2019-05-20T14:30:34.794Z,19.50
2019-05-20T14:33:05.572Z,19.50
2019-05-20T14:35:36.126Z,19.50
2019-05-20T14:38:06.422Z,19.50
2019-05-20T14:40:36.855Z,19.50
2019-05-20T14:43:07.413Z,19.50
2019-05-20T14:45:37.772Z,19.50
2019-05-20T14:48:08.084Z,19.50
2019-05-20T14:50:38.266Z,19.60
2019-05-20T14:53:08.550Z,19.50
2019-05-20T14:55:42.706Z,19.50
2019-05-20T14:58:12.331Z,19.50
2019-05-20T15:00:42.657Z,19.50
2019-05-20T15:03:13.188Z,19.50
2019-05-20T15:05:43.737Z,19.50
2019-05-20T15:08:14.175Z,19.50
2019-05-20T15:10:44.574Z,19.50
2019-05-20T15:13:15.062Z,19.50
2019-05-20T15:15:48.268Z,19.50
2019-05-20T15:18:18.353Z,19.60
2019-05-20T15:20:48.856Z,19.50
2019-05-20T15:23:19.276Z,19.50
2019-05-20T15:25:49.705Z,19.50
2019-05-20T15:28:20.336Z,19.50
2019-05-20T15:30:52.067Z,19.50
2019-05-20T15:33:23.164Z,19.50
2019-05-20T15:35:53.893Z,19.50
2019-05-20T15:38:24.039Z,19.50
2019-05-20T15:40:54.638Z,19.50
2019-05-20T15:43:24.994Z,19.60
2019-05-20T15:45:55.587Z,19.60
2019-05-20T15:48:25.818Z,19.60
2019-05-20T15:50:56.042Z,19.60
2019-05-20T15:53:25.950Z,19.60
2019-05-20T15:55:56.686Z,19.50
2019-05-20T15:58:27.068Z,19.50
2019-05-20T16:00:57.793Z,19.50
2019-05-20T16:03:28.673Z,19.50
2019-05-20T16:05:59.884Z,19.50
2019-05-20T16:08:30.920Z,19.50
2019-05-20T16:11:01.152Z,19.50
2019-05-20T16:13:32.006Z,19.50
2019-05-20T16:16:02.427Z,19.50
2019-05-20T16:18:32.775Z,19.50
2019-05-20T16:21:03.427Z,19.50
2019-05-20T16:23:35.065Z,19.40
2019-05-20T16:26:05.919Z,19.40
2019-05-20T16:28:35.464Z,19.40
2019-05-20T16:31:04.948Z,19.40
2019-05-20T16:33:34.380Z,19.40
2019-05-20T16:36:04.058Z,19.30
2019-05-20T16:38:33.517Z,19.40
2019-05-20T16:41:03.005Z,19.40
2019-05-20T16:43:32.498Z,19.30
2019-05-20T16:46:01.908Z,19.40
2019-05-20T16:48:32.480Z,19.50
2019-05-20T16:51:01.884Z,19.40
2019-05-20T16:53:31.363Z,19.40
2019-05-20T16:56:00.853Z,19.40
2019-05-20T16:58:30.361Z,19.40
2019-05-20T17:00:59.841Z,19.40
2019-05-20T17:03:29.325Z,19.30
2019-05-20T17:05:58.725Z,19.30
2019-05-20T17:08:28.567Z,19.30
2019-05-20T17:10:59.108Z,19.40
2019-05-20T17:13:28.783Z,19.30
2019-05-20T17:15:58.244Z,19.30
2019-05-20T17:18:27.729Z,19.30
2019-05-20T17:20:57.132Z,19.40
2019-05-20T17:23:26.617Z,19.40
2019-05-20T17:25:56.045Z,19.40
2019-05-20T17:28:25.495Z,19.40
2019-05-20T17:30:55.030Z,19.40
2019-05-20T17:33:24.613Z,19.40
2019-05-20T17:35:54.043Z,19.40
2019-05-20T17:38:23.492Z,19.40
2019-05-20T17:40:52.976Z,19.40
2019-05-20T17:43:22.369Z,19.30
2019-05-20T17:45:51.865Z,19.30
2019-05-20T17:48:21.647Z,19.30
2019-05-20T17:50:51.503Z,19.30
2019-05-20T17:53:20.989Z,19.20
2019-05-20T17:55:50.545Z,19.20
2019-05-20T17:58:20.025Z,19.20
2019-05-20T18:00:49.710Z,19.20
2019-05-20T18:03:19.196Z,19.20
2019-05-20T18:05:48.678Z,19.20
2019-05-20T18:08:18.196Z,19.20
2019-05-20T18:10:48.476Z,19.20
2019-05-20T18:13:17.931Z,19.20
2019-05-20T18:15:47.450Z,19.10
2019-05-20T18:18:16.849Z,19.10
2019-05-20T18:20:46.296Z,19.20
2019-05-20T18:23:15.912Z,19.30
2019-05-20T18:25:45.322Z,19.30
2019-05-20T18:28:16.432Z,19.40
2019-05-20T18:30:45.874Z,19.30
2019-05-20T18:33:15.463Z,19.30
2019-05-20T18:35:46.024Z,19.30
2019-05-20T18:38:18.927Z,19.20
2019-05-20T18:40:48.332Z,19.30
2019-05-20T18:43:24.161Z,19.30
2019-05-20T18:45:53.608Z,19.30
2019-05-20T18:48:23.090Z,19.30
2019-05-20T18:50:52.604Z,19.30
2019-05-20T18:53:22.252Z,19.30
2019-05-20T18:55:51.712Z,19.20
2019-05-20T18:58:21.238Z,19.20
2019-05-20T19:00:50.773Z,19.30
2019-05-20T19:03:20.762Z,19.30
2019-05-20T19:05:50.549Z,19.30
2019-05-20T19:08:20.231Z,19.30
2019-05-20T19:10:49.717Z,19.30
2019-05-20T19:13:19.111Z,19.20
2019-05-20T19:15:48.539Z,19.20
2019-05-20T19:18:18.604Z,19.20
2019-05-20T19:20:48.016Z,19.20
2019-05-20T19:23:17.442Z,19.20
2019-05-20T19:25:46.904Z,19.20
2019-05-20T19:28:16.304Z,19.20
2019-05-20T19:30:45.726Z,19.10
2019-05-20T19:33:15.456Z,19.20
2019-05-20T19:35:45.048Z,19.10
2019-05-20T19:38:15.517Z,19.10
2019-05-20T19:40:45.129Z,19.10
2019-05-20T19:43:14.940Z,19.10
2019-05-20T19:45:44.421Z,19.10
2019-05-20T19:48:13.824Z,19.10
2019-05-20T19:50:43.722Z,19.10
2019-05-20T19:53:13.391Z,19.10
2019-05-20T19:55:42.856Z,19.10
2019-05-20T19:58:12.257Z,19.10
2019-05-20T20:00:43.487Z,19.10
2019-05-20T20:03:13.853Z,19.00
2019-05-20T20:05:43.272Z,19.10
2019-05-20T20:08:12.859Z,19.10
2019-05-20T20:10:42.508Z,19.10
2019-05-20T20:13:12.195Z,19.00
2019-05-20T20:15:42.707Z,19.00
2019-05-20T20:18:12.196Z,19.00
2019-05-20T20:20:42.560Z,19.00
2019-05-20T20:23:12.036Z,19.00
2019-05-20T20:25:41.459Z,19.00
2019-05-20T20:28:10.849Z,19.00
2019-05-20T20:30:40.250Z,19.00
2019-05-20T20:33:09.744Z,19.10
2019-05-20T20:35:39.237Z,19.00
2019-05-20T20:38:08.629Z,19.00
2019-05-20T20:40:38.040Z,19.00
2019-05-20T20:43:07.447Z,19.10
2019-05-20T20:45:36.979Z,19.00
2019-05-20T20:48:07.036Z,19.00
2019-05-20T20:50:36.494Z,19.00
2019-05-20T20:53:06.054Z,19.00
2019-05-20T20:55:35.744Z,19.00
2019-05-20T20:58:05.220Z,19.00
2019-05-20T21:00:35.169Z,18.90
2019-05-20T21:03:06.249Z,18.90
2019-05-20T21:05:35.939Z,18.90
2019-05-20T21:08:05.429Z,19.00
2019-05-20T21:10:34.837Z,18.90
2019-05-20T21:13:09.059Z,19.00
2019-05-20T21:15:38.776Z,19.00
2019-05-20T21:18:08.291Z,19.00
2019-05-20T21:20:37.867Z,19.00
2019-05-20T21:23:07.270Z,19.00
2019-05-20T21:25:36.860Z,18.90
2019-05-20T21:28:06.248Z,18.90
2019-05-20T21:30:37.545Z,18.90
2019-05-20T21:33:09.497Z,18.90
2019-05-20T21:35:38.148Z,18.90
2019-05-20T21:38:10.609Z,18.90
2019-05-20T21:40:40.326Z,18.90
2019-05-20T21:43:09.997Z,18.90
2019-05-20T21:45:39.606Z,18.90
2019-05-20T21:48:09.008Z,18.90
2019-05-20T21:50:40.042Z,18.90
2019-05-20T21:53:09.572Z,18.90
2019-05-20T21:55:42.211Z,18.90
2019-05-20T21:58:11.704Z,18.90
2019-05-20T22:00:47.137Z,18.90
2019-05-20T22:03:24.561Z,18.80
2019-05-20T22:05:50.946Z,18.90
2019-05-20T22:08:20.342Z,18.90
2019-05-20T22:10:51.093Z,18.90
2019-05-20T22:13:20.572Z,18.80
2019-05-20T22:15:50.105Z,18.80
2019-05-20T22:18:19.486Z,18.90
2019-05-20T22:20:48.916Z,18.90
2019-05-20T22:23:22.865Z,18.90
2019-05-20T22:25:52.847Z,18.80
2019-05-20T22:28:22.387Z,18.80
2019-05-20T22:30:51.879Z,18.90
2019-05-20T22:33:21.287Z,18.90
2019-05-20T22:35:50.815Z,18.90
2019-05-20T22:38:20.211Z,18.90
2019-05-20T22:40:49.732Z,18.90
2019-05-20T22:43:19.165Z,18.90
2019-05-20T22:45:48.616Z,18.90
2019-05-20T22:48:19.088Z,18.80
2019-05-20T22:50:49.092Z,18.90
2019-05-20T22:53:18.516Z,18.80
2019-05-20T22:55:47.986Z,18.80
2019-05-20T22:58:17.402Z,18.90
2019-05-20T23:00:46.800Z,18.80
2019-05-20T23:03:16.310Z,18.80
2019-05-20T23:05:45.708Z,18.80
2019-05-20T23:08:15.829Z,18.80
2019-05-20T23:10:45.230Z,18.80
2019-05-20T23:13:14.670Z,18.70
2019-05-20T23:15:44.176Z,18.80
2019-05-20T23:18:13.604Z,18.80
2019-05-20T23:20:43.076Z,18.70
2019-05-20T23:23:12.553Z,18.70
2019-05-20T23:25:42.021Z,18.70
2019-05-20T23:28:11.544Z,18.70
2019-05-20T23:30:41.089Z,18.70
2019-05-20T23:33:10.569Z,18.70
2019-05-20T23:35:39.979Z,18.70
2019-05-20T23:38:09.456Z,18.70
2019-05-20T23:40:38.928Z,18.70
2019-05-20T23:43:08.329Z,18.60
2019-05-20T23:45:37.805Z,18.70
2019-05-20T23:48:07.199Z,18.70
2019-05-20T23:50:36.608Z,18.70
2019-05-20T23:53:06.090Z,18.70
2019-05-20T23:55:35.580Z,18.70
2019-05-20T23:58:05.127Z,18.60
